createdAt,value
2022-11-14T00:00:03.921Z,65.27
2022-11-14T00:02:30.616Z,64.71
2022-11-14T00:04:57.859Z,64.25
2022-11-14T00:07:24.636Z,64.11
2022-11-14T00:09:51.367Z,63.84
2022-11-14T00:12:18.199Z,62.90
2022-11-14T00:14:45.326Z,63.14
2022-11-14T00:17:11.964Z,63.45
2022-11-14T00:19:39.155Z,63.66
2022-11-14T00:22:05.794Z,65.02
2022-11-14T00:24:32.542Z,66.51
2022-11-14T00:26:59.335Z,65.34
2022-11-14T00:29:26.005Z,64.79
2022-11-14T00:31:52.669Z,64.81
2022-11-14T00:34:19.741Z,64.36
2022-11-14T00:36:55.717Z,64.70
2022-11-14T00:39:24.863Z,63.14
2022-11-14T00:42:11.621Z,63.79
2022-11-14T00:44:43.005Z,64.38
2022-11-14T00:47:18.285Z,64.72
2022-11-14T00:49:47.180Z,65.62
2022-11-14T00:52:13.813Z,65.06
2022-11-14T00:54:40.498Z,64.67
2022-11-14T00:57:07.821Z,64.99
2022-11-14T00:59:34.596Z,65.65
2022-11-14T01:02:01.967Z,65.21
2022-11-14T01:04:48.610Z,70.41
2022-11-14T01:07:15.673Z,67.20
2022-11-14T01:09:42.498Z,69.03
2022-11-14T01:12:09.394Z,68.29
2022-11-14T01:14:36.035Z,69.16
2022-11-14T01:17:03.722Z,70.73
2022-11-14T01:19:30.381Z,69.81
2022-11-14T01:21:59.570Z,68.58
2022-11-14T01:24:28.518Z,69.69
2022-11-14T01:26:56.368Z,69.27
2022-11-14T01:29:23.532Z,67.37
2022-11-14T01:31:50.247Z,67.60
2022-11-14T01:34:17.349Z,68.59
2022-11-14T01:36:44.329Z,69.14
2022-11-14T01:39:11.143Z,70.32
2022-11-14T01:41:38.959Z,70.03
2022-11-14T01:44:16.286Z,72.86
2022-11-14T01:46:47.291Z,70.36
2022-11-14T01:49:35.929Z,69.09
2022-11-14T01:52:03.956Z,69.83
2022-11-14T01:54:32.933Z,69.55
2022-11-14T01:57:01.419Z,68.83
2022-11-14T01:59:31.500Z,69.19
2022-11-14T02:02:00.214Z,71.82
2022-11-14T02:04:29.162Z,71.46
2022-11-14T02:06:59.338Z,71.80
2022-11-14T02:09:26.426Z,73.11
2022-11-14T02:11:55.171Z,71.93
2022-11-14T02:14:22.015Z,70.78
2022-11-14T02:17:07.640Z,71.09
2022-11-14T02:19:49.027Z,70.89
2022-11-14T02:22:15.700Z,71.31
2022-11-14T02:24:43.005Z,71.66
2022-11-14T02:27:10.616Z,71.13
2022-11-14T02:29:37.896Z,72.60
2022-11-14T02:32:10.496Z,73.54
2022-11-14T02:34:48.607Z,77.19
2022-11-14T02:37:15.552Z,74.17
2022-11-14T02:39:42.670Z,74.03
2022-11-14T02:42:09.395Z,73.74
2022-11-14T02:44:36.220Z,73.90
2022-11-14T02:47:04.089Z,74.01
2022-11-14T02:49:32.161Z,74.10
2022-11-14T02:51:59.000Z,73.64
2022-11-14T02:54:25.933Z,74.09
2022-11-14T02:56:52.613Z,73.96
2022-11-14T02:59:19.772Z,75.85
2022-11-14T03:01:46.567Z,75.04
2022-11-14T03:04:13.307Z,75.02
2022-11-14T03:06:40.005Z,74.44
2022-11-14T03:09:07.706Z,74.53
2022-11-14T03:11:34.353Z,74.40
2022-11-14T03:14:01.313Z,74.23
2022-11-14T03:16:28.126Z,77.74
2022-11-14T03:18:55.978Z,76.75
2022-11-14T03:21:23.334Z,77.28
2022-11-14T03:24:09.993Z,76.15
2022-11-14T03:26:36.825Z,75.62
2022-11-14T03:29:20.991Z,78.01
2022-11-14T03:31:48.934Z,77.58
2022-11-14T03:34:16.012Z,77.14
2022-11-14T03:36:43.151Z,77.58
2022-11-14T03:39:09.901Z,81.16
2022-11-14T03:41:36.736Z,82.01
2022-11-14T03:44:03.558Z,77.88
2022-11-14T03:46:30.600Z,77.25
2022-11-14T03:48:57.411Z,76.79
2022-11-14T03:51:24.162Z,75.48
2022-11-14T03:53:51.016Z,79.48
2022-11-14T03:56:17.819Z,78.11
2022-11-14T03:58:44.542Z,80.00
2022-11-14T04:01:11.404Z,76.90
2022-11-14T04:03:38.172Z,76.69
2022-11-14T04:06:05.011Z,82.58
2022-11-14T04:08:32.081Z,78.45
2022-11-14T04:10:59.276Z,78.10
2022-11-14T04:13:26.350Z,78.56
2022-11-14T04:15:59.261Z,78.41
2022-11-14T04:18:26.472Z,80.33
2022-11-14T04:20:53.302Z,81.61
2022-11-14T04:23:20.348Z,82.96
2022-11-14T04:25:47.512Z,79.97
2022-11-14T04:28:14.450Z,82.43
2022-11-14T04:30:41.217Z,82.38
2022-11-14T04:33:07.886Z,83.14
2022-11-14T04:35:34.645Z,85.87
2022-11-14T04:38:01.316Z,85.82
2022-11-14T04:40:28.003Z,86.42
2022-11-14T04:42:54.645Z,86.29
2022-11-14T04:45:21.393Z,90.82
2022-11-14T04:47:48.051Z,88.48
2022-11-14T04:50:14.664Z,89.44
2022-11-14T04:52:41.486Z,88.45
2022-11-14T04:55:08.584Z,90.51
2022-11-14T04:57:35.359Z,89.15
2022-11-14T05:00:02.088Z,89.75
2022-11-14T05:02:30.844Z,90.00
2022-11-14T05:04:57.780Z,90.64
2022-11-14T05:07:24.861Z,91.08
2022-11-14T05:09:51.711Z,90.60
2022-11-14T05:12:18.491Z,90.16
2022-11-14T05:14:45.499Z,89.52
2022-11-14T05:17:12.439Z,89.95
2022-11-14T05:19:39.219Z,91.58
2022-11-14T05:22:05.895Z,91.47
2022-11-14T05:24:32.735Z,91.56
2022-11-14T05:26:59.631Z,90.01
2022-11-14T05:29:26.372Z,88.21
2022-11-14T05:31:53.209Z,89.47
2022-11-14T05:34:19.899Z,88.59
2022-11-14T05:36:46.800Z,89.22
2022-11-14T05:39:13.525Z,88.80
2022-11-14T05:41:40.493Z,89.36
2022-11-14T05:44:07.394Z,87.37
2022-11-14T05:46:34.184Z,89.64
2022-11-14T05:49:00.965Z,89.50
2022-11-14T05:51:27.745Z,90.28
2022-11-14T05:53:55.643Z,88.09
2022-11-14T05:56:22.409Z,87.87
2022-11-14T05:58:49.240Z,88.27
2022-11-14T06:01:17.076Z,91.75
2022-11-14T06:03:45.187Z,88.82
2022-11-14T06:06:13.317Z,89.23
2022-11-14T06:08:40.357Z,89.01
2022-11-14T06:11:08.635Z,92.89
2022-11-14T06:13:35.801Z,89.67
2022-11-14T06:16:03.699Z,91.86
2022-11-14T06:18:31.230Z,92.24
2022-11-14T06:21:02.218Z,91.09
2022-11-14T06:23:29.462Z,89.26
2022-11-14T06:26:00.154Z,90.66
2022-11-14T06:28:27.170Z,89.63
2022-11-14T06:31:00.417Z,89.74
2022-11-14T06:33:34.360Z,94.51
2022-11-14T06:36:01.989Z,92.08
2022-11-14T06:38:30.929Z,94.98
2022-11-14T06:41:11.572Z,95.54
2022-11-14T06:43:40.005Z,97.20
2022-11-14T06:46:26.848Z,94.78
2022-11-14T06:48:55.007Z,96.38
2022-11-14T06:51:22.016Z,93.91
2022-11-14T06:53:50.848Z,94.25
2022-11-14T06:56:20.484Z,93.12
2022-11-14T06:59:07.340Z,96.09
2022-11-14T07:01:34.168Z,97.30
2022-11-14T07:04:20.900Z,94.68
2022-11-14T07:06:47.756Z,95.70
2022-11-14T07:09:19.954Z,96.03
2022-11-14T07:11:48.967Z,96.22
2022-11-14T07:14:15.973Z,95.97
2022-11-14T07:16:42.761Z,96.04
2022-11-14T07:19:10.267Z,95.17
2022-11-14T07:21:37.375Z,96.61
2022-11-14T07:24:04.671Z,96.03
2022-11-14T07:26:32.119Z,94.70
2022-11-14T07:29:02.825Z,97.22
2022-11-14T07:31:31.102Z,97.64
2022-11-14T07:34:02.066Z,97.32
2022-11-14T07:36:29.050Z,95.76
2022-11-14T07:38:56.471Z,97.01
2022-11-14T07:41:23.555Z,94.53
2022-11-14T07:43:50.565Z,96.43
2022-11-14T07:46:18.370Z,94.43
2022-11-14T07:48:46.283Z,96.46
2022-11-14T07:51:17.873Z,93.43
2022-11-14T07:53:48.887Z,95.35
2022-11-14T07:58:51.884Z,95.37
2022-11-14T08:01:38.771Z,94.89
2022-11-14T08:04:10.984Z,94.48
2022-11-14T08:06:40.321Z,94.79
2022-11-14T08:09:07.254Z,95.75
2022-11-14T08:11:49.393Z,95.71
2022-11-14T08:14:16.664Z,93.96
2022-11-14T08:16:43.542Z,93.55
2022-11-14T08:19:33.503Z,94.02
2022-11-14T08:22:02.962Z,94.94
2022-11-14T08:24:29.864Z,95.32
2022-11-14T08:26:56.753Z,92.34
2022-11-14T08:29:25.882Z,94.89
2022-11-14T08:32:00.094Z,94.00
2022-11-14T08:34:29.443Z,94.28
2022-11-14T08:36:58.603Z,92.97
2022-11-14T08:39:25.441Z,91.17
2022-11-14T08:41:52.363Z,89.12
2022-11-14T08:44:19.321Z,90.18
2022-11-14T08:46:46.161Z,91.15
2022-11-14T08:49:15.795Z,91.67
2022-11-14T08:52:08.535Z,89.03
2022-11-14T08:54:39.676Z,90.83
2022-11-14T08:57:08.773Z,90.47
2022-11-14T08:59:35.760Z,88.17
2022-11-14T09:02:02.785Z,91.19
2022-11-14T09:04:29.851Z,90.17
2022-11-14T09:07:06.339Z,88.71
2022-11-14T09:09:37.534Z,93.81
2022-11-14T09:12:04.511Z,90.44
2022-11-14T09:14:31.343Z,91.76
2022-11-14T09:17:01.821Z,91.72
2022-11-14T09:19:33.881Z,90.19
2022-11-14T09:22:00.784Z,91.39
2022-11-14T09:24:32.393Z,88.90
2022-11-14T09:27:02.961Z,86.93
2022-11-14T09:29:29.896Z,86.68
2022-11-14T09:31:57.455Z,87.16
2022-11-14T09:34:24.474Z,84.29
2022-11-14T09:36:52.384Z,86.94
2022-11-14T09:39:19.207Z,87.48
2022-11-14T09:41:57.762Z,88.76
2022-11-14T09:44:29.973Z,87.05
2022-11-14T09:47:00.363Z,86.40
2022-11-14T09:49:36.723Z,84.10
2022-11-14T09:52:27.285Z,85.25
2022-11-14T09:54:58.581Z,86.43
2022-11-14T09:57:26.423Z,86.94
2022-11-14T09:59:56.614Z,84.13
2022-11-14T10:02:46.803Z,83.70
2022-11-14T10:05:22.921Z,83.15
2022-11-14T10:07:49.865Z,85.65
2022-11-14T10:10:38.911Z,83.45
2022-11-14T10:13:14.363Z,82.83
2022-11-14T10:15:44.044Z,81.11
2022-11-14T10:18:33.779Z,82.11
2022-11-14T10:21:25.679Z,82.79
2022-11-14T10:23:58.897Z,84.06
2022-11-14T10:26:33.444Z,82.44
2022-11-14T10:29:24.975Z,83.57
2022-11-14T10:32:10.718Z,82.13
2022-11-14T10:34:48.245Z,82.23
2022-11-14T10:37:25.272Z,81.56
2022-11-14T10:39:54.344Z,84.12
2022-11-14T10:42:33.066Z,85.01
2022-11-14T10:45:02.777Z,83.68
2022-11-14T10:47:33.863Z,83.17
2022-11-14T10:50:07.313Z,82.97
2022-11-14T10:52:39.873Z,82.54
2022-11-14T10:55:18.737Z,83.78
2022-11-14T10:57:46.203Z,82.34
2022-11-14T11:00:15.953Z,82.90
2022-11-14T11:02:51.933Z,82.25
2022-11-14T11:05:21.554Z,81.34
2022-11-14T11:11:17.894Z,79.93
2022-11-14T11:13:56.007Z,81.03
2022-11-14T11:16:24.733Z,79.64
2022-11-14T11:19:00.014Z,79.86
2022-11-14T11:21:26.906Z,79.98
2022-11-14T11:23:57.878Z,80.27
2022-11-14T11:26:28.936Z,78.94
2022-11-14T11:29:03.218Z,78.64
2022-11-14T11:31:49.351Z,76.61
2022-11-14T11:34:18.412Z,74.65
2022-11-14T11:36:48.871Z,76.48
2022-11-14T11:39:24.073Z,75.19
2022-11-14T11:42:08.688Z,76.90
2022-11-14T11:44:43.589Z,77.00
2022-11-14T11:47:13.815Z,74.83
2022-11-14T11:49:46.317Z,77.07
2022-11-14T11:52:24.382Z,77.03
2022-11-14T11:54:54.349Z,77.06
2022-11-14T11:57:26.922Z,74.79
2022-11-14T12:00:01.171Z,74.68
2022-11-14T12:02:28.845Z,74.95
2022-11-14T12:04:56.813Z,76.06
2022-11-14T12:07:42.122Z,75.75
2022-11-14T12:10:22.551Z,75.80
2022-11-14T12:13:03.996Z,78.02
2022-11-14T12:15:34.682Z,77.46
2022-11-14T12:18:25.996Z,79.11
2022-11-14T12:21:13.012Z,77.40
2022-11-14T12:23:58.693Z,77.12
2022-11-14T12:26:25.462Z,75.46
2022-11-14T12:29:02.921Z,76.75
2022-11-14T12:31:33.631Z,74.24
2022-11-14T12:34:06.120Z,74.56
2022-11-14T12:36:35.092Z,73.90
2022-11-14T12:39:02.633Z,75.81
2022-11-14T12:41:31.492Z,76.93
2022-11-14T12:44:18.871Z,77.70
2022-11-14T12:47:04.775Z,78.47
2022-11-14T12:49:52.901Z,82.19
2022-11-14T12:52:38.403Z,82.29
2022-11-14T12:55:05.383Z,82.12
2022-11-14T12:57:50.371Z,82.04
2022-11-14T13:00:17.972Z,81.21
2022-11-14T13:02:53.454Z,83.41
2022-11-14T13:05:31.822Z,84.23
2022-11-14T13:08:18.813Z,81.67
2022-11-14T13:10:46.686Z,80.62
2022-11-14T13:13:33.328Z,82.35
2022-11-14T13:16:24.463Z,84.13
2022-11-14T13:19:14.718Z,81.60
2022-11-14T13:22:01.549Z,83.78
2022-11-14T13:24:58.781Z,83.44
2022-11-14T13:27:45.206Z,85.92
2022-11-14T13:30:15.888Z,83.83
2022-11-14T13:32:42.593Z,82.38
2022-11-14T13:35:35.618Z,81.27
2022-11-14T13:38:21.312Z,82.78
2022-11-14T13:40:48.145Z,84.18
2022-11-14T13:43:18.043Z,83.10
2022-11-14T13:45:49.395Z,82.21
2022-11-14T13:48:16.183Z,82.02
2022-11-14T13:50:47.930Z,81.94
2022-11-14T13:53:16.768Z,82.43
2022-11-14T13:56:06.314Z,82.76
2022-11-14T13:58:35.894Z,80.14
2022-11-14T14:01:02.782Z,82.22
2022-11-14T14:03:38.655Z,82.16
2022-11-14T14:06:06.117Z,81.29
2022-11-14T14:08:44.755Z,82.94
2022-11-14T14:11:30.387Z,83.00
2022-11-14T14:14:20.573Z,81.69
2022-11-14T14:16:52.948Z,83.91
2022-11-14T14:19:34.666Z,85.31
2022-11-14T14:22:03.715Z,86.75
2022-11-14T14:24:31.493Z,83.57
2022-11-14T14:27:08.855Z,86.15
2022-11-14T14:29:50.516Z,84.88
2022-11-14T14:32:18.567Z,82.21
2022-11-14T14:34:45.931Z,84.62
2022-11-14T14:37:23.364Z,85.97
2022-11-14T14:40:00.380Z,83.80
2022-11-14T14:42:35.225Z,85.87
2022-11-14T14:45:03.446Z,86.50
2022-11-14T14:47:35.424Z,84.07
2022-11-14T14:50:03.292Z,83.50
2022-11-14T14:52:34.192Z,85.17
2022-11-14T14:55:03.899Z,83.74
2022-11-14T14:57:30.824Z,85.61
2022-11-14T15:00:04.019Z,82.59
2022-11-14T15:02:31.134Z,83.51
2022-11-14T15:04:59.623Z,83.51
2022-11-14T15:07:31.045Z,84.54
2022-11-14T15:10:02.536Z,84.46
2022-11-14T15:12:30.793Z,85.46
2022-11-14T15:14:58.824Z,86.37
2022-11-14T15:17:30.405Z,87.34
2022-11-14T15:20:00.922Z,87.46
2022-11-14T15:22:29.886Z,85.85
2022-11-14T15:25:12.002Z,88.01
2022-11-14T15:27:46.535Z,87.43
2022-11-14T15:30:27.606Z,86.18
2022-11-14T15:33:01.957Z,87.03
2022-11-14T15:35:28.973Z,84.88
2022-11-14T15:38:41.934Z,82.42
2022-11-14T15:41:17.093Z,84.67
2022-11-14T15:43:50.913Z,81.59
2022-11-14T15:46:36.151Z,82.97
2022-11-14T15:49:15.014Z,81.92
2022-11-14T15:51:44.822Z,80.22
2022-11-14T15:54:24.054Z,85.24
2022-11-14T15:56:51.523Z,86.10
2022-11-14T15:59:18.506Z,85.79
2022-11-14T16:01:46.982Z,86.07
2022-11-14T16:04:18.604Z,86.77
2022-11-14T16:06:45.451Z,85.14
2022-11-14T16:09:16.913Z,83.27
2022-11-14T16:11:44.041Z,83.42
2022-11-14T16:14:11.041Z,83.88
2022-11-14T16:16:37.808Z,82.46
2022-11-14T16:19:04.954Z,85.77
2022-11-14T16:21:31.755Z,86.14
2022-11-14T16:23:58.522Z,83.48
2022-11-14T16:26:28.118Z,86.16
2022-11-14T16:28:55.071Z,84.82
2022-11-14T16:31:22.114Z,86.76
2022-11-14T16:33:48.813Z,88.22
2022-11-14T16:36:15.630Z,86.58
2022-11-14T16:38:42.359Z,89.06
2022-11-14T16:41:10.643Z,89.14
2022-11-14T16:43:37.325Z,92.01
2022-11-14T16:46:05.793Z,88.38
2022-11-14T16:48:33.045Z,86.70
2022-11-14T16:51:14.976Z,84.26
2022-11-14T16:53:48.119Z,85.06
2022-11-14T16:56:14.914Z,86.94
2022-11-14T16:58:42.276Z,83.83
2022-11-14T17:01:17.437Z,82.21
2022-11-14T17:03:47.813Z,87.71
2022-11-14T17:06:15.133Z,89.60
2022-11-14T17:08:41.858Z,84.14
2022-11-14T17:11:10.406Z,90.41
2022-11-14T17:13:37.905Z,92.81
2022-11-14T17:16:05.071Z,90.41
2022-11-14T17:18:38.180Z,87.68
2022-11-14T17:21:06.712Z,88.17
2022-11-14T17:23:33.967Z,87.95
2022-11-14T17:26:07.542Z,90.05
2022-11-14T17:28:34.445Z,87.65
2022-11-14T17:31:07.075Z,87.29
2022-11-14T17:33:34.170Z,86.93
2022-11-14T17:36:08.826Z,89.02
2022-11-14T17:38:36.797Z,87.06
2022-11-14T17:41:06.883Z,86.77
2022-11-14T17:43:38.620Z,85.76
2022-11-14T17:46:09.846Z,87.22
2022-11-14T17:48:41.713Z,86.38
2022-11-14T17:51:11.015Z,84.70
2022-11-14T17:53:37.945Z,84.62
2022-11-14T17:56:04.845Z,86.07
2022-11-14T17:58:32.212Z,87.81
2022-11-14T18:00:59.205Z,89.39
2022-11-14T18:03:26.794Z,86.03
2022-11-14T18:05:53.714Z,85.68
2022-11-14T18:08:20.432Z,85.82
2022-11-14T18:10:47.115Z,86.21
2022-11-14T18:13:13.795Z,85.01
2022-11-14T18:15:47.713Z,85.73
2022-11-14T18:18:14.983Z,86.85
2022-11-14T18:20:42.042Z,84.50
2022-11-14T18:23:08.843Z,83.77
2022-11-14T18:25:35.615Z,86.93
2022-11-14T18:28:02.272Z,85.45
2022-11-14T18:30:41.071Z,85.46
2022-11-14T18:33:08.691Z,85.90
2022-11-14T18:35:35.356Z,83.45
2022-11-14T18:38:02.714Z,81.96
2022-11-14T18:40:29.483Z,81.10
2022-11-14T18:42:56.530Z,80.96
2022-11-14T18:45:23.493Z,81.27
2022-11-14T18:47:50.542Z,81.84
2022-11-14T18:50:17.332Z,79.24
2022-11-14T18:52:44.033Z,79.38
2022-11-14T18:55:11.027Z,78.29
2022-11-14T18:57:39.504Z,78.86
2022-11-14T19:00:06.593Z,77.20
2022-11-14T19:02:33.408Z,77.27
2022-11-14T19:05:00.181Z,79.45
2022-11-14T19:07:26.957Z,79.28
2022-11-14T19:09:54.396Z,82.65
2022-11-14T19:12:23.608Z,81.91
2022-11-14T19:14:54.084Z,83.62
2022-11-14T19:17:21.235Z,82.93
2022-11-14T19:19:48.913Z,82.61
2022-11-14T19:22:16.171Z,82.76
2022-11-14T19:24:45.286Z,82.84
2022-11-14T19:27:12.393Z,83.23
2022-11-14T19:29:39.094Z,83.68
2022-11-14T19:32:06.393Z,82.16
2022-11-14T19:34:33.161Z,82.75
2022-11-14T19:37:01.203Z,84.43
2022-11-14T19:39:29.375Z,83.77
2022-11-14T19:41:56.119Z,84.76
2022-11-14T19:44:22.954Z,82.70
2022-11-14T19:46:49.967Z,81.82
2022-11-14T19:49:16.723Z,80.66
2022-11-14T19:51:43.475Z,80.22
2022-11-14T19:54:11.135Z,80.62
2022-11-14T19:56:37.954Z,79.65
2022-11-14T19:59:11.036Z,79.16
2022-11-14T20:01:42.445Z,77.88
2022-11-14T20:04:11.435Z,77.95
2022-11-14T20:06:38.133Z,81.84
2022-11-14T20:09:06.572Z,82.08
2022-11-14T20:11:34.114Z,82.59
2022-11-14T20:14:01.473Z,82.88
2022-11-14T20:16:29.852Z,80.10
2022-11-14T20:18:59.357Z,82.36
2022-11-14T20:21:27.270Z,83.39
2022-11-14T20:23:54.513Z,83.96
2022-11-14T20:26:21.527Z,81.95
2022-11-14T20:28:50.884Z,82.85
2022-11-14T20:31:18.869Z,82.39
2022-11-14T20:33:47.023Z,80.98
2022-11-14T20:36:15.274Z,80.39
2022-11-14T20:38:42.613Z,80.76
2022-11-14T20:41:09.692Z,81.85
2022-11-14T20:43:36.481Z,82.85
2022-11-14T20:46:07.632Z,80.98
2022-11-14T20:48:34.562Z,82.59
2022-11-14T20:51:02.833Z,83.54
2022-11-14T20:53:30.169Z,84.82
2022-11-14T20:55:57.174Z,86.52
2022-11-14T20:58:24.330Z,83.88
2022-11-14T21:00:51.423Z,83.01
2022-11-14T21:03:18.224Z,84.42
2022-11-14T21:05:45.113Z,84.31
2022-11-14T21:08:14.484Z,83.38
2022-11-14T21:10:47.838Z,83.75
2022-11-14T21:13:33.617Z,84.68
2022-11-14T21:16:01.123Z,85.05
2022-11-14T21:18:28.565Z,84.16
2022-11-14T21:21:02.762Z,85.94
2022-11-14T21:23:29.837Z,84.98
2022-11-14T21:26:11.154Z,85.54
2022-11-14T21:28:39.127Z,85.55
2022-11-14T21:31:22.880Z,87.50
2022-11-14T21:33:50.513Z,88.02
2022-11-14T21:39:04.677Z,88.03
2022-11-14T21:41:31.685Z,88.01
2022-11-14T21:44:00.274Z,90.17
2022-11-14T21:46:27.704Z,85.89
2022-11-14T21:48:55.420Z,85.07
2022-11-14T21:51:26.752Z,85.49
2022-11-14T21:53:54.646Z,88.20
2022-11-14T21:56:22.623Z,85.61
2022-11-14T21:58:49.555Z,88.86
2022-11-14T22:01:38.039Z,86.36
2022-11-14T22:04:14.354Z,84.25
2022-11-14T22:06:42.875Z,84.50
2022-11-14T22:09:10.263Z,84.80
2022-11-14T22:11:40.330Z,84.57
2022-11-14T22:14:07.524Z,84.42
2022-11-14T22:16:35.784Z,86.79
2022-11-14T22:19:05.528Z,88.36
2022-11-14T22:21:32.634Z,89.23
2022-11-14T22:23:59.523Z,88.49
2022-11-14T22:26:26.252Z,88.85
2022-11-14T22:28:53.003Z,88.23
2022-11-14T22:31:21.012Z,91.91
2022-11-14T22:33:48.963Z,87.37
2022-11-14T22:36:17.023Z,85.26
2022-11-14T22:38:44.163Z,84.28
2022-11-14T22:41:21.284Z,86.31
2022-11-14T22:43:48.344Z,84.70
2022-11-14T22:46:15.798Z,86.20
2022-11-14T22:48:43.592Z,84.78
2022-11-14T22:51:14.471Z,88.98
2022-11-14T22:53:41.283Z,90.19
2022-11-14T22:56:08.994Z,87.66
2022-11-14T22:58:38.063Z,87.54
2022-11-14T23:01:14.993Z,89.44
2022-11-14T23:03:41.992Z,89.10
2022-11-14T23:06:09.425Z,90.88
2022-11-14T23:08:36.230Z,88.15
2022-11-14T23:11:07.362Z,87.97
2022-11-14T23:13:40.973Z,87.15
2022-11-14T23:16:14.951Z,84.86
2022-11-14T23:18:42.135Z,87.23
2022-11-14T23:21:30.396Z,87.63
2022-11-14T23:23:58.674Z,87.60
2022-11-14T23:26:26.051Z,90.60
2022-11-14T23:28:53.204Z,91.19
2022-11-14T23:31:23.385Z,91.08
2022-11-14T23:33:50.794Z,88.40
2022-11-14T23:36:18.186Z,88.92
2022-11-14T23:38:45.122Z,89.24
2022-11-14T23:41:17.123Z,88.49
2022-11-14T23:43:43.893Z,89.17
2022-11-14T23:46:11.103Z,89.70
2022-11-14T23:48:37.876Z,85.69
2022-11-14T23:51:04.604Z,86.69
2022-11-14T23:53:31.584Z,86.65
2022-11-14T23:55:59.704Z,90.62
2022-11-14T23:58:27.162Z,88.28
